Time,TemperatureF,DewpointF,PressureIn,WindDirection,WindDirectionDegrees,WindSpeedMPH,WindSpeedGustMPH,Humidity,HourlyPrecipIn,Conditions,Clouds,dailyrainin,SoftwareType,DateUTC
2013-03-06 00:13:00,48.1,28.0,30.18,WNW,288,2.0,8.0,45,0.00,,,0.00,weatherlink.com 1.10,2013-03-06 06:13:00,
2013-03-06 00:28:00,47.4,27.0,30.18,NNE,33,5.0,8.0,45,0.00,,,0.00,weatherlink.com 1.10,2013-03-06 06:28:00,
2013-03-06 00:43:00,47.3,26.0,30.19,NNE,32,3.0,10.0,44,0.00,,,0.00,weatherlink.com 1.10,2013-03-06 06:43:00,
2013-03-06 00:58:00,46.6,26.0,30.19,NNE,32,3.0,7.0,44,0.00,,,0.00,weatherlink.com 1.10,2013-03-06 06:58:00,
2013-03-06 01:13:00,45.9,25.0,30.19,NW,319,0.0,5.0,45,0.00,,,0.00,weatherlink.com 1.10,2013-03-06 07:13:00,
2013-03-06 01:28:00,44.9,26.0,30.19,NNW,335,1.0,8.0,48,0.00,,,0.00,weatherlink.com 1.10,2013-03-06 07:28:00,
2013-03-06 01:43:00,44.5,26.0,30.19,WNW,297,1.0,8.0,48,0.00,,,0.00,weatherlink.com 1.10,2013-03-06 07:43:00,
2013-03-06 01:58:00,44.3,25.0,30.19,NW,309,1.0,7.0,47,0.00,,,0.00,weatherlink.com 1.10,2013-03-06 07:58:00,
2013-03-06 02:13:00,43.9,25.0,30.19,NNW,347,3.0,8.0,48,0.00,,,0.00,weatherlink.com 1.10,2013-03-06 08:13:00,
2013-03-06 02:28:00,43.5,25.0,30.19,NW,314,2.0,6.0,48,0.00,,,0.00,weatherlink.com 1.10,2013-03-06 08:28:00,
2013-03-06 02:43:00,43.1,25.0,30.19,NW,307,2.0,6.0,49,0.00,,,0.00,weatherlink.com 1.10,2013-03-06 08:43:00,
2013-03-06 02:58:00,42.6,25.0,30.19,NNW,333,3.0,5.0,51,0.00,,,0.00,weatherlink.com 1.10,2013-03-06 08:58:00,
2013-03-06 03:13:00,42.1,25.0,30.18,NNW,328,1.0,6.0,51,0.00,,,0.00,weatherlink.com 1.10,2013-03-06 09:13:00,
2013-03-06 03:28:00,41.9,25.0,30.19,North,353,0.0,6.0,52,0.00,,,0.00,weatherlink.com 1.10,2013-03-06 09:28:00,
2013-03-06 03:43:00,41.5,25.0,30.20,West,279,2.0,5.0,52,0.00,,,0.00,weatherlink.com 1.10,2013-03-06 09:43:00,
2013-03-06 03:58:00,41.0,25.0,30.20,NNE,25,2.0,8.0,53,0.00,,,0.00,weatherlink.com 1.10,2013-03-06 09:58:00,
2013-03-06 04:14:00,40.5,25.0,30.21,North,10,1.0,2.0,55,0.00,,,0.00,weatherlink.com 1.10,2013-03-06 10:14:00,
2013-03-06 04:29:00,40.0,25.0,30.21,NNW,342,1.0,3.0,56,0.00,,,0.00,weatherlink.com 1.10,2013-03-06 10:29:00,
2013-03-06 04:44:00,39.8,25.0,30.22,North,11,1.0,5.0,56,0.00,,,0.00,weatherlink.com 1.10,2013-03-06 10:44:00,
2013-03-06 04:59:00,39.6,25.0,30.22,North,1,1.0,4.0,57,0.00,,,0.00,weatherlink.com 1.10,2013-03-06 10:59:00,
2013-03-06 05:14:00,39.1,25.0,30.23,NNW,342,1.0,4.0,58,0.00,,,0.00,weatherlink.com 1.10,2013-03-06 11:14:00,
2013-03-06 05:29:00,38.7,25.0,30.24,North,349,3.0,4.0,59,0.00,,,0.00,weatherlink.com 1.10,2013-03-06 11:29:00,
2013-03-06 05:44:00,38.3,25.0,30.24,NW,304,2.0,3.0,60,0.00,,,0.00,weatherlink.com 1.10,2013-03-06 11:44:00,
2013-03-06 05:59:00,37.8,26.0,30.25,WNW,294,1.0,3.0,62,0.00,,,0.00,weatherlink.com 1.10,2013-03-06 11:59:00,
2013-03-06 06:14:00,37.4,26.0,30.25,WNW,286,0.0,2.0,63,0.00,,,0.00,weatherlink.com 1.10,2013-03-06 12:14:00,
2013-03-06 06:29:00,37.1,26.0,30.26,WNW,288,0.0,1.0,64,0.00,,,0.00,weatherlink.com 1.10,2013-03-06 12:29:00,
2013-03-06 06:44:00,36.7,26.0,30.26,NNW,342,0.0,1.0,65,0.00,,,0.00,weatherlink.com 1.10,2013-03-06 12:44:00,
2013-03-06 06:59:00,37.1,26.0,30.27,WNW,283,1.0,1.0,64,0.00,,,0.00,weatherlink.com 1.10,2013-03-06 12:59:00,
2013-03-06 07:14:00,37.9,26.0,30.27,NW,304,0.0,3.0,63,0.00,,,0.00,weatherlink.com 1.10,2013-03-06 13:14:00,
2013-03-06 07:29:00,39.0,26.0,30.28,WNW,287,2.0,6.0,61,0.00,,,0.00,weatherlink.com 1.10,2013-03-06 13:29:00,
2013-03-06 07:44:00,40.7,27.0,30.29,WNW,294,1.0,4.0,58,0.00,,,0.00,weatherlink.com 1.10,2013-03-06 13:44:00,
2013-03-06 07:59:00,41.7,27.0,30.30,NE,39,3.0,7.0,56,0.00,,,0.00,weatherlink.com 1.10,2013-03-06 13:59:00,
2013-03-06 08:14:00,42.3,27.0,30.30,North,6,5.0,7.0,55,0.00,,,0.00,weatherlink.com 1.10,2013-03-06 14:14:00,
2013-03-06 08:29:00,43.5,27.0,30.30,WNW,293,4.0,8.0,53,0.00,,,0.00,weatherlink.com 1.10,2013-03-06 14:29:00,
2013-03-06 08:44:00,44.0,27.0,30.31,NNW,337,4.0,9.0,51,0.00,,,0.00,weatherlink.com 1.10,2013-03-06 14:44:00,
2013-03-06 08:59:00,45.2,27.0,30.30,NNE,15,3.0,7.0,50,0.00,,,0.00,weatherlink.com 1.10,2013-03-06 14:59:00,
2013-03-06 09:14:00,46.7,28.0,30.30,WNW,290,4.0,8.0,49,0.00,,,0.00,weatherlink.com 1.10,2013-03-06 15:14:00,
2013-03-06 09:29:00,46.8,27.0,30.30,NNE,32,8.0,9.0,46,0.00,,,0.00,weatherlink.com 1.10,2013-03-06 15:29:00,
2013-03-06 09:44:00,46.8,26.0,30.31,WNW,290,2.0,11.0,44,0.00,,,0.00,weatherlink.com 1.10,2013-03-06 15:44:00,
2013-03-06 09:59:00,47.5,26.0,30.30,West,263,1.0,8.0,44,0.00,,,0.00,weatherlink.com 1.10,2013-03-06 15:59:00,
2013-03-06 10:14:00,48.6,28.0,30.30,NNW,347,4.0,7.0,45,0.00,,,0.00,weatherlink.com 1.10,2013-03-06 16:14:00,
2013-03-06 10:29:00,49.0,27.0,30.29,NW,322,2.0,11.0,42,0.00,,,0.00,weatherlink.com 1.10,2013-03-06 16:29:00,
2013-03-06 10:44:00,49.7,26.0,30.29,West,270,5.0,12.0,40,0.00,,,0.00,weatherlink.com 1.10,2013-03-06 16:44:00,
2013-03-06 10:59:00,50.6,27.0,30.29,NNE,22,3.0,10.0,41,0.00,,,0.00,weatherlink.com 1.10,2013-03-06 16:59:00,
2013-03-06 11:14:00,51.0,27.0,30.29,NNW,343,3.0,7.0,40,0.00,,,0.00,weatherlink.com 1.10,2013-03-06 17:14:00,
2013-03-06 11:30:00,51.7,27.0,30.28,WNW,303,2.0,6.0,38,0.00,,,0.00,weatherlink.com 1.10,2013-03-06 17:30:00,
2013-03-06 11:45:00,52.5,27.0,30.28,West,267,2.0,7.0,38,0.00,,,0.00,weatherlink.com 1.10,2013-03-06 17:45:00,
2013-03-06 12:00:00,53.4,27.0,30.27,West,281,4.0,8.0,36,0.00,,,0.00,weatherlink.com 1.10,2013-03-06 18:00:00,
2013-03-06 12:15:00,53.7,26.0,30.26,WNW,283,6.0,7.0,35,0.00,,,0.00,weatherlink.com 1.10,2013-03-06 18:15:00,
2013-03-06 12:30:00,55.3,28.0,30.25,NW,305,4.0,8.0,35,0.00,,,0.00,weatherlink.com 1.10,2013-03-06 18:30:00,
2013-03-06 12:45:00,55.7,28.0,30.25,WNW,290,0.0,9.0,34,0.00,,,0.00,weatherlink.com 1.10,2013-03-06 18:45:00,
2013-03-06 13:00:00,56.5,28.0,30.24,West,262,3.0,9.0,33,0.00,,,0.00,weatherlink.com 1.10,2013-03-06 19:00:00,
2013-03-06 13:15:00,57.6,27.0,30.22,West,269,2.0,7.0,31,0.00,,,0.00,weatherlink.com 1.10,2013-03-06 19:15:00,
2013-03-06 13:30:00,58.2,28.0,30.22,WNW,297,2.0,10.0,31,0.00,,,0.00,weatherlink.com 1.10,2013-03-06 19:30:00,
2013-03-06 13:45:00,58.0,27.0,30.21,NW,325,3.0,8.0,31,0.00,,,0.00,weatherlink.com 1.10,2013-03-06 19:45:00,
2013-03-06 14:00:00,58.6,25.0,30.20,WNW,284,2.0,7.0,28,0.00,,,0.00,weatherlink.com 1.10,2013-03-06 20:00:00,
2013-03-06 14:15:00,58.5,26.0,30.20,NNW,343,4.0,8.0,29,0.00,,,0.00,weatherlink.com 1.10,2013-03-06 20:15:00,
2013-03-06 14:30:00,58.6,25.0,30.20,West,277,5.0,9.0,28,0.00,,,0.00,weatherlink.com 1.10,2013-03-06 20:30:00,
2013-03-06 14:45:00,59.5,27.0,30.19,ENE,64,3.0,8.0,29,0.00,,,0.00,weatherlink.com 1.10,2013-03-06 20:45:00,
2013-03-06 15:00:00,59.1,28.0,30.19,WNW,302,2.0,10.0,31,0.00,,,0.00,weatherlink.com 1.10,2013-03-06 21:00:00,
2013-03-06 15:15:00,58.4,27.0,30.19,North,11,10.0,10.0,30,0.00,,,0.00,weatherlink.com 1.10,2013-03-06 21:15:00,
2013-03-06 15:30:00,58.8,29.0,30.20,West,264,3.0,7.0,32,0.00,,,0.00,weatherlink.com 1.10,2013-03-06 21:30:00,
2013-03-06 15:45:00,59.0,27.0,30.20,West,279,4.0,7.0,30,0.00,,,0.00,weatherlink.com 1.10,2013-03-06 21:45:00,
2013-03-06 16:00:00,58.7,28.0,30.20,North,6,3.0,7.0,31,0.00,,,0.00,weatherlink.com 1.10,2013-03-06 22:00:00,
2013-03-06 16:15:00,58.8,30.0,30.20,NW,305,2.0,5.0,33,0.00,,,0.00,weatherlink.com 1.10,2013-03-06 22:15:00,
2013-03-06 16:30:00,58.8,30.0,30.20,WNW,288,3.0,9.0,33,0.00,,,0.00,weatherlink.com 1.10,2013-03-06 22:30:00,
2013-03-06 16:45:00,58.4,30.0,30.20,WNW,291,6.0,6.0,34,0.00,,,0.00,weatherlink.com 1.10,2013-03-06 22:45:00,
2013-03-06 17:00:00,57.9,30.0,30.21,ESE,114,0.0,5.0,34,0.00,,,0.00,weatherlink.com 1.10,2013-03-06 23:00:00,
2013-03-06 17:15:00,57.2,30.0,30.21,WNW,298,1.0,6.0,36,0.00,,,0.00,weatherlink.com 1.10,2013-03-06 23:15:00,
2013-03-06 17:30:00,56.0,31.0,30.21,North,360,2.0,5.0,38,0.00,,,0.00,weatherlink.com 1.10,2013-03-06 23:30:00,
2013-03-06 17:45:00,54.7,31.0,30.22,NNW,332,4.0,5.0,40,0.00,,,0.00,weatherlink.com 1.10,2013-03-06 23:45:00,
2013-03-06 18:00:00,53.1,31.0,30.22,North,11,0.0,3.0,43,0.00,,,0.00,weatherlink.com 1.10,2013-03-07 00:00:00,
2013-03-06 18:15:00,51.8,31.0,30.22,NW,316,0.0,2.0,45,0.00,,,0.00,weatherlink.com 1.10,2013-03-07 00:15:00,
2013-03-06 18:30:00,50.7,31.0,30.22,West,281,0.0,2.0,47,0.00,,,0.00,weatherlink.com 1.10,2013-03-07 00:30:00,
2013-03-06 18:45:00,49.7,32.0,30.23,North,3,0.0,1.0,50,0.00,,,0.00,weatherlink.com 1.10,2013-03-07 00:45:00,
2013-03-06 19:00:00,48.5,32.0,30.24,North,356,0.0,1.0,53,0.00,,,0.00,weatherlink.com 1.10,2013-03-07 01:00:00,
2013-03-06 19:15:00,47.6,31.0,30.24,North,8,2.0,3.0,54,0.00,,,0.00,weatherlink.com 1.10,2013-03-07 01:15:00,
2013-03-06 19:30:00,46.8,32.0,30.25,NNW,338,0.0,2.0,56,0.00,,,0.00,weatherlink.com 1.10,2013-03-07 01:30:00,
2013-03-06 19:45:00,45.7,32.0,30.25,NNE,20,0.0,1.0,59,0.00,,,0.00,weatherlink.com 1.10,2013-03-07 01:45:00,
2013-03-06 20:00:00,44.9,32.0,30.25,NNE,18,0.0,1.0,61,0.00,,,0.00,weatherlink.com 1.10,2013-03-07 02:00:00,
2013-03-06 20:15:00,44.0,32.0,30.25,NNE,18,0.0,1.0,62,0.00,,,0.00,weatherlink.com 1.10,2013-03-07 02:15:00,
2013-03-06 20:30:00,43.7,32.0,30.26,NNW,328,0.0,1.0,64,0.00,,,0.00,weatherlink.com 1.10,2013-03-07 02:30:00,
2013-03-06 20:45:00,42.8,32.0,30.27,NNE,15,0.0,1.0,66,0.00,,,0.00,weatherlink.com 1.10,2013-03-07 02:45:00,
2013-03-06 21:00:00,42.3,32.0,30.28,NE,50,0.0,1.0,67,0.00,,,0.00,weatherlink.com 1.10,2013-03-07 03:00:00,
2013-03-06 21:15:00,41.7,32.0,30.28,NNW,342,0.0,1.0,69,0.00,,,0.00,weatherlink.com 1.10,2013-03-07 03:15:00,
2013-03-06 21:30:00,40.7,32.0,30.28,NNW,341,0.0,1.0,71,0.00,,,0.00,weatherlink.com 1.10,2013-03-07 03:30:00,
2013-03-06 21:45:00,40.1,32.0,30.28,NNW,341,0.0,0.0,72,0.00,,,0.00,weatherlink.com 1.10,2013-03-07 03:45:00,
2013-03-06 22:00:00,39.8,32.0,30.27,NNW,342,0.0,0.0,73,0.00,,,0.00,weatherlink.com 1.10,2013-03-07 04:00:00,
2013-03-06 22:15:00,39.4,31.0,30.27,NNE,27,0.0,1.0,73,0.00,,,0.00,weatherlink.com 1.10,2013-03-07 04:15:00,
2013-03-06 22:30:00,39.6,31.0,30.26,NE,41,2.0,2.0,71,0.00,,,0.00,weatherlink.com 1.10,2013-03-07 04:30:00,
2013-03-06 22:45:00,39.6,31.0,30.26,ENE,69,0.0,0.0,72,0.00,,,0.00,weatherlink.com 1.10,2013-03-07 04:45:00,
2013-03-06 23:01:00,39.0,31.0,30.26,ENE,69,0.0,0.0,73,0.00,,,0.00,weatherlink.com 1.10,2013-03-07 05:01:00,
2013-03-06 23:15:00,38.6,31.0,30.27,ENE,69,0.0,0.0,74,0.00,,,0.00,weatherlink.com 1.10,2013-03-07 05:15:00,
2013-03-06 23:30:00,38.1,31.0,30.27,ENE,69,0.0,0.0,76,0.00,,,0.00,weatherlink.com 1.10,2013-03-07 05:30:00,
2013-03-06 23:45:00,37.8,31.0,30.26,ENE,68,0.0,1.0,76,0.00,,,0.00,weatherlink.com 1.10,2013-03-07 05:45:00,